FYAL CNC3-CNC3
Flight info
| Callsign | FYAL |
|---|---|
| Flight time | 0h 18m |
| Altitude | 51000 |
| Route | VFR |
| Aircraft | AC50/H-SDFHIRWXY/X |
Departure
| Time | 2026-05-08 02:39 |
|---|---|
| Airport | Brampton-Caledon Airport (CNC3) |
Arrival
| Time | 2026-05-08 02:57 |
|---|---|
| Airport | Brampton-Caledon Airport (CNC3) |
| Time | Latitude | Longitude | Altitude | Speed | Heading |
|---|---|---|---|---|---|
| 2026-05-08 02:20 | 43.75950 | -79.87774 | 928 ft | 0 kts | 44° |
| 2026-05-08 02:26 | 43.75951 | -79.87774 | 928 ft | 2 kts | 44° |
| 2026-05-08 02:26 | 43.75960 | -79.87766 | 928 ft | 3 kts | 8° |
| 2026-05-08 02:26 | 43.75980 | -79.87777 | 929 ft | 2 kts | 335° |
| 2026-05-08 02:27 | 43.75992 | -79.87783 | 929 ft | 2 kts | 348° |
| 2026-05-08 02:27 | 43.76020 | -79.87761 | 930 ft | 7 kts | 42° |
| 2026-05-08 02:27 | 43.76048 | -79.87721 | 930 ft | 5 kts | 46° |
| 2026-05-08 02:27 | 43.76076 | -79.87681 | 931 ft | 7 kts | 45° |
| 2026-05-08 02:28 | 43.76098 | -79.87649 | 933 ft | 2 kts | 50° |
| 2026-05-08 02:28 | 43.76100 | -79.87645 | 931 ft | 0 kts | 50° |
| 2026-05-08 02:28 | 43.76108 | -79.87632 | 931 ft | 7 kts | 50° |
| 2026-05-08 02:28 | 43.76123 | -79.87630 | 932 ft | 1 kts | 292° |
| 2026-05-08 02:29 | 43.76123 | -79.87632 | 934 ft | 0 kts | 284° |
| 2026-05-08 02:30 | 43.76124 | -79.87632 | 932 ft | 0 kts | 284° |
| 2026-05-08 02:33 | 43.76124 | -79.87635 | 932 ft | 2 kts | 273° |
| 2026-05-08 02:33 | 43.76090 | -79.87614 | 931 ft | 7 kts | 137° |
| 2026-05-08 02:34 | 43.76041 | -79.87548 | 930 ft | 13 kts | 135° |
| 2026-05-08 02:34 | 43.75989 | -79.87481 | 928 ft | 8 kts | 137° |
| 2026-05-08 02:34 | 43.75953 | -79.87432 | 924 ft | 9 kts | 136° |
| 2026-05-08 02:34 | 43.75910 | -79.87376 | 922 ft | 9 kts | 135° |
| 2026-05-08 02:35 | 43.75858 | -79.87307 | 924 ft | 9 kts | 137° |
| 2026-05-08 02:35 | 43.75813 | -79.87247 | 923 ft | 11 kts | 136° |
| 2026-05-08 02:35 | 43.75759 | -79.87175 | 922 ft | 11 kts | 137° |
| 2026-05-08 02:35 | 43.75706 | -79.87104 | 918 ft | 11 kts | 136° |
| 2026-05-08 02:36 | 43.75655 | -79.87036 | 916 ft | 8 kts | 136° |
| 2026-05-08 02:36 | 43.75621 | -79.86991 | 915 ft | 5 kts | 136° |
| 2026-05-08 02:36 | 43.75604 | -79.86967 | 915 ft | 2 kts | 136° |
| 2026-05-08 02:36 | 43.75600 | -79.86963 | 914 ft | 0 kts | 141° |
| 2026-05-08 02:38 | 43.75596 | -79.86936 | 914 ft | 8 kts | 55° |
| 2026-05-08 02:38 | 43.75622 | -79.86898 | 914 ft | 4 kts | 46° |
| 2026-05-08 02:38 | 43.75640 | -79.86877 | 914 ft | 3 kts | 351° |
| 2026-05-08 02:38 | 43.75718 | -79.86985 | 916 ft | 48 kts | 316° |
| 2026-05-08 02:39 | 43.76068 | -79.87446 | 1068 ft | 76 kts | 316° |
| 2026-05-08 02:39 | 43.76443 | -79.87986 | 1303 ft | 81 kts | 307° |
| 2026-05-08 02:39 | 43.76785 | -79.88624 | 1527 ft | 84 kts | 293° |
| 2026-05-08 02:39 | 43.76769 | -79.89397 | 1763 ft | 82 kts | 242° |
| 2026-05-08 02:40 | 43.76273 | -79.89770 | 1818 ft | 93 kts | 176° |
| 2026-05-08 02:40 | 43.75714 | -79.89331 | 1864 ft | 97 kts | 137° |
| 2026-05-08 02:40 | 43.75239 | -79.88653 | 1834 ft | 100 kts | 132° |
| 2026-05-08 02:40 | 43.74828 | -79.87930 | 1876 ft | 96 kts | 127° |
| 2026-05-08 02:41 | 43.74393 | -79.87218 | 1867 ft | 97 kts | 133° |
| 2026-05-08 02:41 | 43.73965 | -79.86498 | 1866 ft | 97 kts | 133° |
| 2026-05-08 02:41 | 43.73666 | -79.85731 | 1704 ft | 93 kts | 89° |
| 2026-05-08 02:41 | 43.74000 | -79.85029 | 1469 ft | 84 kts | 28° |
| 2026-05-08 02:42 | 43.74482 | -79.85198 | 1305 ft | 78 kts | 304° |
| 2026-05-08 02:42 | 43.74806 | -79.85774 | 1166 ft | 74 kts | 312° |
| 2026-05-08 02:42 | 43.75180 | -79.86267 | 1057 ft | 74 kts | 315° |
| 2026-05-08 02:42 | 43.75553 | -79.86765 | 952 ft | 71 kts | 315° |
| 2026-05-08 02:43 | 43.75859 | -79.87173 | 919 ft | 50 kts | 316° |
| 2026-05-08 02:43 | 43.76203 | -79.87619 | 1014 ft | 76 kts | 316° |
| 2026-05-08 02:43 | 43.76586 | -79.88126 | 1236 ft | 77 kts | 313° |
| 2026-05-08 02:43 | 43.76898 | -79.88725 | 1437 ft | 81 kts | 278° |
| 2026-05-08 02:44 | 43.76660 | -79.89389 | 1648 ft | 77 kts | 217° |
| 2026-05-08 02:44 | 43.76204 | -79.89787 | 1787 ft | 84 kts | 196° |
| 2026-05-08 02:44 | 43.75662 | -79.89528 | 1801 ft | 90 kts | 134° |
| 2026-05-08 02:44 | 43.75271 | -79.88828 | 1821 ft | 94 kts | 126° |
| 2026-05-08 02:45 | 43.74844 | -79.88149 | 1852 ft | 95 kts | 138° |
| 2026-05-08 02:45 | 43.74386 | -79.87477 | 1856 ft | 97 kts | 133° |
| 2026-05-08 02:45 | 43.73938 | -79.86774 | 1862 ft | 96 kts | 137° |
| 2026-05-08 02:45 | 43.73685 | -79.86041 | 1648 ft | 85 kts | 84° |
| 2026-05-08 02:46 | 43.74036 | -79.85417 | 1405 ft | 82 kts | 34° |
| 2026-05-08 02:46 | 43.74554 | -79.85416 | 1277 ft | 80 kts | 320° |
| 2026-05-08 02:46 | 43.74941 | -79.85948 | 1149 ft | 77 kts | 313° |
| 2026-05-08 02:46 | 43.75333 | -79.86471 | 1005 ft | 78 kts | 314° |
| 2026-05-08 02:47 | 43.75708 | -79.86971 | 920 ft | 66 kts | 314° |
| 2026-05-08 02:47 | 43.75999 | -79.87360 | 931 ft | 70 kts | 317° |
| 2026-05-08 02:47 | 43.76387 | -79.87836 | 1119 ft | 76 kts | 313° |
| 2026-05-08 02:47 | 43.76759 | -79.88366 | 1325 ft | 79 kts | 311° |
| 2026-05-08 02:48 | 43.77075 | -79.88987 | 1529 ft | 81 kts | 277° |
| 2026-05-08 02:48 | 43.76834 | -79.89664 | 1711 ft | 81 kts | 220° |
| 2026-05-08 02:48 | 43.76379 | -79.90094 | 1853 ft | 90 kts | 185° |
| 2026-05-08 02:48 | 43.75827 | -79.89640 | 1853 ft | 100 kts | 133° |
| 2026-05-08 02:49 | 43.75355 | -79.88912 | 1865 ft | 102 kts | 131° |
| 2026-05-08 02:49 | 43.74906 | -79.88169 | 1906 ft | 100 kts | 132° |
| 2026-05-08 02:49 | 43.74463 | -79.87433 | 1941 ft | 101 kts | 131° |
| 2026-05-08 02:49 | 43.73975 | -79.86735 | 1920 ft | 103 kts | 143° |
| 2026-05-08 02:50 | 43.73674 | -79.85973 | 1668 ft | 94 kts | 87° |
| 2026-05-08 02:50 | 43.74029 | -79.85288 | 1513 ft | 87 kts | 35° |
| 2026-05-08 02:50 | 43.74565 | -79.85377 | 1359 ft | 85 kts | 311° |
| 2026-05-08 02:50 | 43.74949 | -79.85955 | 1122 ft | 79 kts | 312° |
| 2026-05-08 02:51 | 43.75323 | -79.86459 | 1012 ft | 74 kts | 313° |
| 2026-05-08 02:51 | 43.75694 | -79.86951 | 919 ft | 67 kts | 314° |
| 2026-05-08 02:51 | 43.75998 | -79.87355 | 923 ft | 75 kts | 315° |
| 2026-05-08 02:51 | 43.76400 | -79.87870 | 1149 ft | 77 kts | 318° |
| 2026-05-08 02:52 | 43.76806 | -79.88361 | 1378 ft | 78 kts | 317° |
| 2026-05-08 02:52 | 43.77012 | -79.89024 | 1564 ft | 81 kts | 259° |
| 2026-05-08 02:52 | 43.76693 | -79.89617 | 1773 ft | 81 kts | 216° |
| 2026-05-08 02:52 | 43.76142 | -79.89828 | 1828 ft | 92 kts | 167° |
| 2026-05-08 02:53 | 43.75617 | -79.89324 | 1791 ft | 94 kts | 134° |
| 2026-05-08 02:53 | 43.75189 | -79.88640 | 1756 ft | 94 kts | 132° |
| 2026-05-08 02:53 | 43.74792 | -79.87979 | 1670 ft | 83 kts | 127° |
| 2026-05-08 02:53 | 43.74648 | -79.87247 | 1386 ft | 82 kts | 77° |
| 2026-05-08 02:54 | 43.74983 | -79.86651 | 1150 ft | 77 kts | 28° |
| 2026-05-08 02:54 | 43.75469 | -79.86694 | 972 ft | 63 kts | 323° |
| 2026-05-08 02:54 | 43.75755 | -79.87035 | 917 ft | 54 kts | 314° |
| 2026-05-08 02:54 | 43.76109 | -79.87479 | 1045 ft | 75 kts | 319° |
| 2026-05-08 02:55 | 43.76510 | -79.87973 | 1252 ft | 78 kts | 317° |
| 2026-05-08 02:55 | 43.76561 | -79.89188 | 1667 ft | 79 kts | 217° |
| 2026-05-08 02:55 | 43.76067 | -79.89528 | 1860 ft | 82 kts | 173° |
| 2026-05-08 02:56 | 43.75543 | -79.89044 | 1886 ft | 98 kts | 137° |
| 2026-05-08 02:56 | 43.75052 | -79.88320 | 1897 ft | 110 kts | 132° |
| 2026-05-08 02:56 | 43.74554 | -79.87500 | 1819 ft | 102 kts | 131° |
| 2026-05-08 02:56 | 43.74289 | -79.86758 | 1597 ft | 88 kts | 81° |
| 2026-05-08 02:57 | 43.74730 | -79.86379 | 1366 ft | 79 kts | 2° |
| 2026-05-08 02:57 | 43.75244 | -79.86491 | 1142 ft | 75 kts | 339° |
| 2026-05-08 02:57 | 43.75641 | -79.86883 | 928 ft | 66 kts | 320° |
| 2026-05-08 02:57 | 43.75893 | -79.87216 | 920 ft | 36 kts | 315° |